Time;durP1;ratioP1;P1;durP2;ratioP2;P2;SDS_P1;SDS_P2;PMS_P1;PMS_P2;Temp;Humidity;BMP_temperature;BMP_pressure;BME280_temperature;BME280_humidity;BME280_pressure;Samples;Min_cycle;Max_cycle;Signal;HPM_P1;HPM_P2
2022/08/04 00:00:02;;;;;;;1.70;1.00;;;25.50;1.00;;;;;;5113568;28;20468;-76
2022/08/04 00:02:50;;;;;;;1.00;0.77;;;25.50;1.00;;;;;;5113107;28;20472;-76
2022/08/04 00:05:32;;;;;;;0.90;0.60;;;25.50;1.00;;;;;;5113244;28;20426;-76
2022/08/04 00:08:07;;;;;;;1.10;0.80;;;25.40;1.00;;;;;;5113059;28;20920;-76
2022/08/04 00:10:36;;;;;;;1.00;0.70;;;25.40;1.00;;;;;;5112425;28;20798;-76
2022/08/04 00:13:05;;;;;;;0.90;0.60;;;25.40;1.00;;;;;;5111103;28;20489;-76
2022/08/04 00:15:33;;;;;;;0.87;0.70;;;25.40;1.00;;;;;;5111816;28;20444;-75
2022/08/04 00:18:03;;;;;;;0.80;0.60;;;25.30;1.00;;;;;;5099634;28;20488;-75
2022/08/04 00:20:33;;;;;;;1.10;0.70;;;25.30;1.00;;;;;;5100499;28;20437;-75
2022/08/04 00:23:02;;;;;;;0.90;0.60;;;25.30;1.00;;;;;;5099350;28;20552;-74
2022/08/04 00:25:30;;;;;;;0.83;0.60;;;25.30;1.00;;;;;;5099540;28;20437;-74
2022/08/04 00:28:00;;;;;;;0.80;0.50;;;25.20;1.00;;;;;;5099743;28;20718;-74
2022/08/04 00:30:28;;;;;;;0.90;0.67;;;25.10;1.00;;;;;;5099018;28;20476;-74
2022/08/04 00:32:56;;;;;;;1.20;0.77;;;25.10;1.00;;;;;;5098766;28;20481;-75
2022/08/04 00:35:24;;;;;;;1.53;0.70;;;25.00;1.00;;;;;;5097878;28;20481;-75
2022/08/04 00:37:52;;;;;;;0.90;0.70;;;25.10;1.00;;;;;;5098318;28;20503;-74
2022/08/04 00:40:28;;;;;;;0.80;0.60;;;25.00;1.00;;;;;;5098182;28;20503;-75
2022/08/04 00:43:08;;;;;;;0.90;0.60;;;25.00;1.00;;;;;;5097937;28;20529;-74
2022/08/04 00:46:06;;;;;;;0.80;0.60;;;25.00;1.00;;;;;;5098477;28;20481;-74
2022/08/04 00:48:51;;;;;;;0.60;0.50;;;25.00;1.00;;;;;;5078297;28;20818;-74
2022/08/04 00:51:31;;;;;;;2.20;0.60;;;24.90;1.00;;;;;;5101974;28;20465;-74
2022/08/04 00:54:06;;;;;;;1.33;0.60;;;24.90;1.00;;;;;;5101373;28;20571;-74
2022/08/04 00:56:57;;;;;;;3.40;0.60;;;24.80;1.00;;;;;;5101112;28;20479;-75
2022/08/04 00:59:38;;;;;;;1.53;0.60;;;24.80;1.00;;;;;;5102030;28;20461;-74
2022/08/04 01:02:14;;;;;;;0.60;0.60;;;24.80;1.00;;;;;;5101753;28;20892;-74
2022/08/04 01:04:53;;;;;;;1.00;0.60;;;24.80;1.00;;;;;;5101656;28;20476;-74
2022/08/04 01:07:40;;;;;;;0.80;0.60;;;24.70;1.00;;;;;;5101948;28;20468;-75
2022/08/04 01:10:13;;;;;;;0.67;0.50;;;24.80;1.00;;;;;;5102480;28;20488;-74
2022/08/04 01:13:06;;;;;;;0.60;0.50;;;24.80;1.00;;;;;;5115334;28;20484;-74
2022/08/04 01:15:40;;;;;;;0.70;0.60;;;24.80;1.00;;;;;;5122326;28;20480;-75
2022/08/04 01:18:08;;;;;;;2.20;0.60;;;24.80;1.00;;;;;;5123197;28;20457;-75
2022/08/04 01:20:42;;;;;;;0.73;0.60;;;24.70;1.00;;;;;;5121866;28;20935;-75
2022/08/04 01:23:40;;;;;;;0.70;0.60;;;24.70;1.00;;;;;;5122252;28;20551;-74
2022/08/04 01:26:33;;;;;;;0.77;0.60;;;24.60;1.00;;;;;;5121988;28;20468;-74
2022/08/04 01:29:07;;;;;;;0.90;0.70;;;24.60;1.00;;;;;;5121191;28;20879;-75
2022/08/04 01:31:42;;;;;;;1.00;0.60;;;24.50;1.00;;;;;;5120881;28;20754;-75
2022/08/04 01:34:13;;;;;;;0.90;0.50;;;24.50;1.00;;;;;;5122034;28;20480;-74
2022/08/04 01:36:51;;;;;;;0.80;0.60;;;24.60;1.00;;;;;;5120910;28;20455;-74
2022/08/04 01:42:07;;;;;;;1.40;0.50;;;24.60;1.00;;;;;;5120980;28;20569;-74
2022/08/04 01:44:37;;;;;;;1.00;0.60;;;24.60;1.00;;;;;;5121143;28;20827;-74
2022/08/04 01:47:05;;;;;;;1.30;0.57;;;24.60;1.00;;;;;;5121258;28;20464;-75
2022/08/04 01:49:32;;;;;;;1.13;0.80;;;24.60;1.00;;;;;;5120853;28;20744;-74
2022/08/04 01:52:00;;;;;;;0.97;0.60;;;24.60;1.00;;;;;;5120979;28;20441;-74
2022/08/04 01:54:28;;;;;;;0.70;0.60;;;24.70;1.00;;;;;;5120568;28;20495;-75
2022/08/04 01:56:56;;;;;;;1.10;0.67;;;24.80;1.00;;;;;;5120886;28;20479;-75
2022/08/04 01:59:23;;;;;;;1.93;0.60;;;24.80;1.00;;;;;;5120924;28;20884;-74
2022/08/04 02:01:52;;;;;;;0.87;0.60;;;24.80;1.00;;;;;;5120198;28;20445;-75
2022/08/04 02:04:20;;;;;;;0.77;0.50;;;24.70;1.00;;;;;;5120493;28;20900;-75
2022/08/04 02:06:55;;;;;;;0.70;0.57;;;24.60;1.00;;;;;;5120221;28;20876;-74
2022/08/04 02:09:29;;;;;;;0.90;0.60;;;24.60;1.00;;;;;;5121185;28;20456;-74
2022/08/04 02:12:04;;;;;;;1.33;0.80;;;24.50;1.00;;;;;;5120141;28;20464;-75
2022/08/04 02:14:41;;;;;;;1.00;0.80;;;24.50;1.00;;;;;;5120501;28;20490;-74
2022/08/04 02:17:13;;;;;;;3.43;0.80;;;24.40;1.00;;;;;;5120187;28;20452;-74
2022/08/04 02:20:04;;;;;;;0.70;0.53;;;24.40;1.00;;;;;;5120647;28;20471;-75
2022/08/04 02:22:34;;;;;;;0.80;0.70;;;24.40;1.00;;;;;;5120308;28;20453;-74
2022/08/04 02:25:06;;;;;;;0.80;0.70;;;24.40;1.00;;;;;;5120386;28;20476;-74
2022/08/04 02:27:53;;;;;;;2.60;0.60;;;24.30;1.00;;;;;;5119575;28;20449;-75
2022/08/04 02:30:21;;;;;;;1.97;0.67;;;24.30;1.00;;;;;;5120423;28;20465;-74
2022/08/04 02:32:52;;;;;;;0.70;0.60;;;24.20;1.00;;;;;;5113080;28;20877;-75
2022/08/04 02:35:26;;;;;;;0.93;0.70;;;24.20;1.00;;;;;;5118057;28;20860;-74
2022/08/04 02:38:03;;;;;;;0.90;0.70;;;24.10;1.00;;;;;;5112782;28;20831;-75
2022/08/04 02:40:31;;;;;;;0.77;0.60;;;24.00;1.00;;;;;;5119116;28;20501;-75
2022/08/04 02:42:59;;;;;;;0.97;0.50;;;24.00;1.00;;;;;;5111995;28;20885;-75
2022/08/04 02:45:29;;;;;;;0.63;0.53;;;24.00;1.00;;;;;;5119176;28;20448;-75
2022/08/04 02:48:01;;;;;;;0.87;0.70;;;23.90;1.00;;;;;;5126444;28;20946;-76
2022/08/04 02:50:29;;;;;;;0.93;0.67;;;23.90;1.00;;;;;;5132943;28;20425;-76
2022/08/04 02:52:58;;;;;;;1.00;0.70;;;23.90;1.00;;;;;;5132140;28;20448;-76
2022/08/04 02:55:27;;;;;;;1.43;0.77;;;23.90;1.00;;;;;;5118974;28;20665;-74
2022/08/04 02:57:56;;;;;;;1.23;0.63;;;24.00;1.00;;;;;;5119108;28;20445;-75
2022/08/04 03:00:23;;;;;;;0.80;0.67;;;23.90;1.00;;;;;;5119251;28;20480;-75
2022/08/04 03:03:07;;;;;;;1.80;0.70;;;23.90;1.00;;;;;;5119020;28;20453;-74
2022/08/04 03:05:44;;;;;;;0.80;0.60;;;23.90;1.00;;;;;;5119148;28;20476;-74
2022/08/04 03:08:46;;;;;;;0.80;0.70;;;23.90;1.00;;;;;;5118832;28;20495;-74
2022/08/04 03:11:28;;;;;;;1.47;0.70;;;23.90;1.00;;;;;;5110179;28;20456;-75
2022/08/04 03:14:43;;;;;;;0.80;0.70;;;23.80;1.00;;;;;;5118999;28;20520;-74
2022/08/04 03:17:35;;;;;;;1.03;0.63;;;23.80;1.00;;;;;;5118999;28;20461;-75
2022/08/04 03:20:31;;;;;;;0.97;0.70;;;23.60;1.00;;;;;;5118756;28;20948;-74
2022/08/04 03:23:29;;;;;;;2.33;0.60;;;23.60;1.00;;;;;;5118395;28;20480;-74
2022/08/04 03:26:37;;;;;;;0.70;0.60;;;23.70;1.00;;;;;;5118577;28;20479;-75
2022/08/04 03:29:42;;;;;;;0.80;0.50;;;23.80;1.00;;;;;;5090872;28;20560;-74
2022/08/04 03:32:37;;;;;;;0.70;0.50;;;23.80;1.00;;;;;;5105065;28;20462;-74
2022/08/04 03:35:21;;;;;;;0.90;0.70;;;23.70;1.00;;;;;;5114113;28;20504;-75
2022/08/04 03:38:09;;;;;;;0.90;0.70;;;23.70;1.00;;;;;;5112756;28;20942;-74
2022/08/04 03:40:49;;;;;;;1.73;0.80;;;23.70;1.00;;;;;;5110055;28;20528;-75
2022/08/04 03:43:38;;;;;;;0.73;0.63;;;23.60;1.00;;;;;;5109952;28;20540;-74
2022/08/04 03:46:25;;;;;;;0.90;0.67;;;23.50;1.00;;;;;;5118240;28;20914;-74
2022/08/04 03:49:33;;;;;;;0.70;0.60;;;23.40;1.00;;;;;;5110055;28;20457;-75
2022/08/04 03:55:32;;;;;;;1.47;0.67;;;23.50;1.00;;;;;;5117891;28;20480;-74
2022/08/04 03:58:31;;;;;;;1.00;0.70;;;23.50;1.00;;;;;;5110641;28;20481;-75
2022/08/04 04:01:10;;;;;;;1.97;0.60;;;23.50;1.00;;;;;;5113085;28;20472;-74
2022/08/04 04:03:58;;;;;;;2.03;1.43;;;23.50;1.00;;;;;;5109127;28;20497;-74
2022/08/04 04:06:53;;;;;;;1.10;0.80;;;23.50;1.00;;;;;;5059969;28;20525;-75
2022/08/04 04:09:56;;;;;;;0.90;0.57;;;23.40;1.00;;;;;;5117054;28;20904;-75
2022/08/04 04:12:52;;;;;;;3.33;0.80;;;23.40;1.00;;;;;;5116931;28;20951;-74
2022/08/04 04:15:49;;;;;;;1.90;0.70;;;23.50;1.00;;;;;;5116231;28;20570;-75
2022/08/04 04:18:29;;;;;;;0.93;0.70;;;23.60;1.00;;;;;;5088929;28;20468;-75
2022/08/04 04:21:20;;;;;;;1.10;0.80;;;23.60;1.00;;;;;;5116503;28;20735;-74
2022/08/04 04:24:11;;;;;;;2.40;0.70;;;23.50;1.00;;;;;;5118390;28;20918;-75
2022/08/04 04:26:51;;;;;;;1.10;0.70;;;23.50;1.00;;;;;;5104239;28;20509;-75
2022/08/04 04:29:43;;;;;;;0.90;0.80;;;23.40;1.00;;;;;;5121124;28;20479;-75
2022/08/04 04:32:22;;;;;;;1.10;0.70;;;23.30;1.00;;;;;;5120638;28;20822;-75
2022/08/04 04:35:01;;;;;;;1.83;0.80;;;23.20;1.00;;;;;;5120825;28;20516;-75
2022/08/04 04:37:43;;;;;;;0.63;0.53;;;23.10;1.00;;;;;;5120912;28;20871;-75
2022/08/04 04:40:22;;;;;;;1.10;0.60;;;23.00;1.00;;;;;;5120931;28;20472;-74
2022/08/04 04:43:14;;;;;;;1.50;1.13;;;23.10;1.00;;;;;;5121232;28;20814;-74
2022/08/04 04:45:51;;;;;;;0.87;0.70;;;23.10;1.00;;;;;;5120112;28;20531;-75
2022/08/04 04:48:33;;;;;;;1.13;0.60;;;23.00;1.00;;;;;;5120748;28;20452;-75
2022/08/04 04:51:10;;;;;;;1.10;0.60;;;23.00;1.00;;;;;;5120545;28;20448;-75
2022/08/04 04:53:47;;;;;;;0.80;0.60;;;23.20;1.00;;;;;;5119773;28;20447;-74
2022/08/04 04:56:23;;;;;;;0.90;0.60;;;23.30;1.00;;;;;;5120692;28;20937;-74
2022/08/04 04:58:53;;;;;;;0.80;0.60;;;23.40;1.00;;;;;;5119951;28;20813;-74
2022/08/04 05:01:42;;;;;;;0.77;0.60;;;23.40;1.00;;;;;;5120212;28;20429;-74
2022/08/04 05:04:32;;;;;;;0.70;0.60;;;23.40;1.00;;;;;;5120840;28;20544;-74
2022/08/04 05:07:21;;;;;;;0.80;0.60;;;23.40;1.00;;;;;;5119800;28;20449;-75
2022/08/04 05:10:03;;;;;;;0.70;0.60;;;23.40;1.00;;;;;;5120358;28;20534;-74
2022/08/04 05:12:52;;;;;;;0.90;0.77;;;23.40;1.00;;;;;;5119300;28;20487;-74
2022/08/04 05:15:25;;;;;;;0.90;0.67;;;23.40;1.00;;;;;;5120002;28;20563;-76
2022/08/04 05:17:55;;;;;;;0.83;0.70;;;23.40;1.00;;;;;;5113588;28;20503;-75
2022/08/04 05:20:25;;;;;;;1.70;0.60;;;23.40;1.00;;;;;;5118554;28;20476;-74
2022/08/04 05:22:55;;;;;;;0.73;0.70;;;23.30;1.00;;;;;;5119281;28;20509;-74
2022/08/04 05:25:29;;;;;;;1.50;0.80;;;23.30;1.00;;;;;;5118598;28;20502;-75
2022/08/04 05:28:02;;;;;;;0.70;0.50;;;23.30;1.00;;;;;;5118611;28;20503;-74
2022/08/04 05:30:32;;;;;;;0.80;0.50;;;23.30;1.00;;;;;;5116983;27;20832;-74
2022/08/04 05:33:04;;;;;;;0.90;0.70;;;23.30;1.00;;;;;;5116899;28;20957;-74
2022/08/04 05:35:46;;;;;;;1.47;0.60;;;23.40;1.00;;;;;;5117184;28;20530;-75
2022/08/04 05:38:20;;;;;;;1.03;0.63;;;23.40;1.00;;;;;;5109795;28;20457;-74
2022/08/04 05:40:48;;;;;;;0.80;0.60;;;23.50;1.00;;;;;;5118408;28;21054;-75
2022/08/04 05:43:15;;;;;;;1.00;0.70;;;23.60;1.00;;;;;;5118774;28;20547;-75
2022/08/04 05:45:47;;;;;;;0.80;0.50;;;23.60;1.00;;;;;;5118608;28;20463;-75
2022/08/04 05:48:15;;;;;;;0.70;0.60;;;23.80;1.00;;;;;;5118574;28;20457;-74
2022/08/04 05:50:43;;;;;;;0.50;0.50;;;23.80;1.00;;;;;;5118162;28;20433;-74
2022/08/04 05:53:11;;;;;;;1.03;0.50;;;23.90;1.00;;;;;;5118107;28;20482;-74
2022/08/04 05:55:38;;;;;;;0.90;0.60;;;24.00;1.00;;;;;;5118750;28;20991;-74
2022/08/04 05:58:05;;;;;;;0.90;0.70;;;24.00;1.00;;;;;;5117491;28;20510;-73
2022/08/04 06:00:35;;;;;;;0.60;0.50;;;24.10;1.00;;;;;;5118522;28;20456;-75
2022/08/04 06:03:04;;;;;;;1.00;0.60;;;24.20;1.00;;;;;;5118707;28;20457;-74
2022/08/04 06:05:32;;;;;;;0.83;0.60;;;24.30;1.00;;;;;;5118633;28;20445;-73
2022/08/04 06:07:59;;;;;;;0.80;0.50;;;24.40;1.00;;;;;;5119134;28;20484;-74
2022/08/04 06:10:27;;;;;;;2.50;0.50;;;24.50;1.00;;;;;;5119203;28;20524;-74
2022/08/04 06:13:00;;;;;;;0.60;0.57;;;24.50;1.00;;;;;;5119769;28;20480;-75
2022/08/04 06:15:28;;;;;;;0.80;0.70;;;24.60;1.00;;;;;;5116729;28;20564;-77
2022/08/04 06:18:05;;;;;;;0.70;0.50;;;24.80;1.00;;;;;;5115898;28;20510;-76
2022/08/04 06:20:36;;;;;;;0.70;0.60;;;24.80;1.00;;;;;;5116228;28;20918;-76
2022/08/04 06:23:08;;;;;;;0.70;0.50;;;25.00;1.00;;;;;;5116444;28;20484;-76
2022/08/04 06:25:40;;;;;;;1.30;0.60;;;25.10;1.00;;;;;;5117893;28;20449;-77
2022/08/04 06:28:07;;;;;;;1.13;0.60;;;25.10;1.00;;;;;;5117326;28;20662;-77
2022/08/04 06:30:36;;;;;;;0.90;0.70;;;25.30;1.00;;;;;;5118106;28;20480;-76
2022/08/04 06:33:12;;;;;;;0.90;0.60;;;25.40;1.00;;;;;;5115777;28;20453;-77
2022/08/04 06:35:40;;;;;;;1.60;0.60;;;25.50;1.00;;;;;;5116055;28;20578;-77
2022/08/04 06:38:09;;;;;;;1.93;0.50;;;25.60;1.00;;;;;;5116146;28;20937;-77
2022/08/04 06:40:36;;;;;;;1.43;0.50;;;25.70;1.00;;;;;;5114335;28;20445;-78
2022/08/04 06:43:07;;;;;;;2.77;0.60;;;25.70;1.00;;;;;;5114766;28;21119;-77
2022/08/04 06:45:36;;;;;;;0.60;0.50;;;25.80;1.00;;;;;;5115878;28;20476;-77
2022/08/04 06:48:06;;;;;;;0.77;0.50;;;25.80;1.00;;;;;;5114708;28;20497;-75
2022/08/04 06:50:36;;;;;;;0.77;0.50;;;26.00;1.00;;;;;;5116657;28;20505;-76
2022/08/04 06:53:03;;;;;;;0.70;0.53;;;26.10;1.00;;;;;;5115808;28;20528;-77
2022/08/04 06:55:33;;;;;;;1.37;0.60;;;26.20;1.00;;;;;;5116007;28;20476;-76
2022/08/04 06:58:02;;;;;;;0.63;0.50;;;26.30;1.00;;;;;;5114166;28;20479;-76
2022/08/04 07:00:31;;;;;;;1.93;0.60;;;26.40;1.00;;;;;;5115482;28;20441;-77
2022/08/04 07:02:58;;;;;;;0.70;0.50;;;26.50;1.00;;;;;;5115671;28;20453;-77
2022/08/04 07:05:27;;;;;;;1.20;0.60;;;26.60;1.00;;;;;;5116551;28;20473;-77
2022/08/04 07:07:56;;;;;;;0.60;0.47;;;26.70;1.00;;;;;;5116094;28;20517;-77
2022/08/04 07:10:24;;;;;;;0.83;0.57;;;26.80;1.00;;;;;;5113921;28;20501;-76
2022/08/04 07:12:52;;;;;;;0.93;0.60;;;26.90;1.00;;;;;;5119758;27;20530;-77
2022/08/04 07:15:20;;;;;;;1.20;0.60;;;27.10;1.00;;;;;;5116017;27;21042;-76
2022/08/04 07:17:49;;;;;;;0.87;0.60;;;27.20;1.00;;;;;;5134056;27;20577;-77
2022/08/04 07:20:18;;;;;;;0.70;0.53;;;27.20;1.00;;;;;;5134407;27;20937;-76
2022/08/04 07:22:48;;;;;;;1.27;0.50;;;27.40;1.00;;;;;;5133683;27;20474;-75
2022/08/04 07:25:16;;;;;;;0.70;0.40;;;27.40;1.00;;;;;;5134855;27;20523;-77
2022/08/04 07:27:43;;;;;;;0.93;0.50;;;27.50;1.00;;;;;;5134576;27;20476;-75
2022/08/04 07:30:11;;;;;;;0.70;0.60;;;27.60;1.00;;;;;;5135819;27;20532;-76
2022/08/04 07:32:40;;;;;;;1.07;0.70;;;27.70;1.00;;;;;;5134261;27;20455;-76
2022/08/04 07:35:08;;;;;;;0.70;0.60;;;27.90;1.00;;;;;;5134869;27;20511;-75
2022/08/04 07:37:35;;;;;;;1.03;0.53;;;28.00;1.00;;;;;;5128609;27;20536;-76
2022/08/04 07:40:05;;;;;;;1.10;0.50;;;28.10;1.00;;;;;;5137886;27;20442;-76
2022/08/04 07:42:32;;;;;;;1.00;0.70;;;28.30;1.00;;;;;;5143839;27;20451;-78
2022/08/04 07:44:59;;;;;;;1.23;0.60;;;28.30;1.00;;;;;;5134812;27;20576;-76
2022/08/04 07:47:26;;;;;;;0.90;0.60;;;28.40;1.00;;;;;;5136314;27;20507;-76
2022/08/04 07:49:54;;;;;;;0.70;0.60;;;28.50;1.00;;;;;;5135583;27;20450;-77
2022/08/04 07:52:22;;;;;;;0.70;0.53;;;28.50;1.00;;;;;;5135776;27;20538;-76
2022/08/04 07:54:50;;;;;;;1.27;0.60;;;28.60;1.00;;;;;;5135977;27;20515;-75
2022/08/04 07:57:19;;;;;;;4.50;0.77;;;28.60;1.00;;;;;;5135770;27;20534;-74
2022/08/04 07:59:47;;;;;;;3.00;1.73;;;28.70;1.00;;;;;;5136013;27;20923;-75
2022/08/04 08:02:15;;;;;;;3.00;0.67;;;28.90;1.00;;;;;;5134570;27;20444;-75
2022/08/04 08:04:45;;;;;;;0.80;0.70;;;28.90;1.00;;;;;;5134247;27;20535;-77
2022/08/04 08:07:12;;;;;;;1.97;0.57;;;29.00;1.00;;;;;;5134971;27;20488;-75
2022/08/04 08:09:39;;;;;;;0.77;0.60;;;29.20;1.00;;;;;;5136529;27;20444;-76
2022/08/04 08:12:08;;;;;;;1.40;0.60;;;29.10;1.00;;;;;;5134883;28;20579;-74
2022/08/04 08:14:37;;;;;;;2.63;0.50;;;29.10;1.00;;;;;;5135990;28;20522;-76
2022/08/04 08:17:05;;;;;;;0.63;0.50;;;29.30;1.00;;;;;;5135431;28;20448;-76
2022/08/04 08:19:33;;;;;;;0.60;0.43;;;29.40;1.00;;;;;;5133672;28;20887;-76
2022/08/04 08:22:01;;;;;;;0.70;0.57;;;29.50;1.00;;;;;;5134442;28;20483;-76
2022/08/04 08:24:28;;;;;;;0.70;0.50;;;29.60;1.00;;;;;;5135391;28;20487;-76
2022/08/04 08:27:04;;;;;;;0.60;0.40;;;29.70;1.00;;;;;;5135641;28;20479;-75
2022/08/04 08:29:34;;;;;;;0.90;0.50;;;29.70;1.00;;;;;;5136109;28;20454;-75
2022/08/04 08:32:03;;;;;;;0.73;0.50;;;29.80;1.00;;;;;;5135791;28;20943;-75
2022/08/04 08:34:32;;;;;;;2.17;0.50;;;29.80;1.00;;;;;;5135160;28;20509;-75
2022/08/04 08:37:05;;;;;;;0.50;0.50;;;29.90;1.00;;;;;;5134589;28;20476;-75
2022/08/04 08:39:38;;;;;;;0.80;0.60;;;30.00;1.00;;;;;;5133810;28;20500;-74
2022/08/04 08:42:41;;;;;;;1.73;0.52;;;30.00;1.00;;;;;;5134172;28;20801;-74
2022/08/04 08:45:39;;;;;;;0.80;0.60;;;30.10;1.00;;;;;;5135712;28;20239;-74
2022/08/04 08:48:48;;;;;;;0.73;0.53;;;30.20;1.00;;;;;;5135744;28;20543;-72
2022/08/04 08:52:02;;;;;;;0.60;0.50;;;30.30;1.00;;;;;;5135869;28;20534;-74
2022/08/04 08:54:54;;;;;;;0.70;0.50;;;30.40;1.00;;;;;;5050490;28;20482;-73
2022/08/04 08:57:40;;;;;;;6.50;4.97;;;30.50;1.00;;;;;;5050912;28;20723;-73
2022/08/04 09:00:15;;;;;;;1.87;1.63;;;30.50;1.00;;;;;;5106098;28;20543;-72
2022/08/04 09:03:35;;;;;;;0.90;0.60;;;30.80;1.00;;;;;;5133500;28;20455;-73
2022/08/04 09:06:31;;;;;;;0.60;0.50;;;30.90;1.00;;;;;;5133654;28;20463;-73
2022/08/04 09:09:14;;;;;;;1.87;0.60;;;30.90;1.00;;;;;;5133015;27;20497;-72
2022/08/04 09:11:48;;;;;;;0.80;0.60;;;30.90;1.00;;;;;;5143233;27;20501;-73
2022/08/04 09:14:22;;;;;;;3.23;0.50;;;31.10;1.00;;;;;;5120445;27;20730;-72
2022/08/04 09:16:54;;;;;;;0.87;0.60;;;31.10;1.00;;;;;;5136550;27;20471;-73
2022/08/04 09:19:27;;;;;;;1.30;0.60;;;31.10;1.00;;;;;;5133597;27;20447;-72
2022/08/04 09:22:06;;;;;;;0.90;0.80;;;31.20;1.00;;;;;;5133123;27;20443;-72
2022/08/04 09:24:42;;;;;;;0.80;0.60;;;31.30;1.00;;;;;;5137518;27;20442;-73
2022/08/04 09:27:15;;;;;;;2.90;2.70;;;31.50;1.00;;;;;;5129583;27;20942;-72
2022/08/04 09:29:51;;;;;;;2.77;2.47;;;31.50;1.00;;;;;;5117868;28;20468;-73
2022/08/04 09:32:30;;;;;;;0.80;0.70;;;31.70;1.00;;;;;;5118440;28;20476;-72
2022/08/04 09:35:10;;;;;;;0.90;0.70;;;31.90;1.00;;;;;;5118070;28;20535;-73
2022/08/04 09:37:43;;;;;;;0.70;0.60;;;32.10;1.00;;;;;;5118179;27;20452;-73
2022/08/04 09:40:20;;;;;;;0.83;0.60;;;32.40;1.00;;;;;;5132954;27;20770;-73
2022/08/04 09:42:58;;;;;;;1.30;0.70;;;32.50;1.00;;;;;;5133147;27;20501;-73
2022/08/04 09:45:32;;;;;;;0.70;0.60;;;32.60;1.00;;;;;;5136937;27;20894;-73
2022/08/04 09:48:05;;;;;;;0.70;0.60;;;32.60;1.00;;;;;;5137323;27;20500;-73
2022/08/04 09:50:38;;;;;;;0.60;0.50;;;32.80;1.00;;;;;;5126522;27;20871;-73
2022/08/04 09:53:18;;;;;;;0.60;0.50;;;32.90;1.00;;;;;;5133303;27;20890;-73
2022/08/04 09:55:55;;;;;;;0.80;0.60;;;32.90;1.00;;;;;;5129110;27;20472;-73
2022/08/04 09:58:33;;;;;;;0.80;0.60;;;33.10;1.00;;;;;;5116419;28;20487;-72
2022/08/04 10:01:02;;;;;;;0.80;0.63;;;32.90;1.00;;;;;;5115188;28;20448;-75
2022/08/04 10:03:35;;;;;;;0.70;0.70;;;32.80;1.00;;;;;;5114699;28;20480;-73
2022/08/04 10:06:27;;;;;;;2.13;0.60;;;32.90;1.00;;;;;;5123049;27;20476;-75
2022/08/04 10:09:17;;;;;;;0.50;0.47;;;33.10;1.00;;;;;;5123109;27;20791;-73
2022/08/04 10:12:03;;;;;;;0.80;0.60;;;33.30;1.00;;;;;;5130296;27;20555;-75
2022/08/04 10:14:40;;;;;;;0.90;0.50;;;33.50;1.00;;;;;;5115545;28;20456;-74
2022/08/04 10:17:31;;;;;;;1.37;0.50;;;33.70;1.00;;;;;;5116331;28;20480;-74
2022/08/04 10:20:07;;;;;;;1.40;0.53;;;33.70;1.00;;;;;;5117751;28;20884;-75
2022/08/04 10:22:42;;;;;;;0.70;0.60;;;33.90;1.00;;;;;;5116975;28;20540;-75
2022/08/04 10:25:20;;;;;;;0.60;0.50;;;34.40;1.00;;;;;;5116765;28;20520;-75
2022/08/04 10:27:51;;;;;;;1.33;0.50;;;34.70;1.00;;;;;;5117331;28;20550;-74
2022/08/04 10:30:20;;;;;;;0.70;0.50;;;35.20;1.00;;;;;;5117074;28;20907;-74
2022/08/04 10:32:53;;;;;;;0.60;0.50;;;35.60;1.00;;;;;;5126942;27;20449;-75
2022/08/04 10:35:22;;;;;;;0.50;0.40;;;35.90;1.00;;;;;;5118965;27;20525;-74
2022/08/04 10:38:01;;;;;;;0.80;0.50;;;36.10;1.00;;;;;;5115184;28;20967;-74
2022/08/04 10:40:44;;;;;;;0.80;0.60;;;36.20;1.00;;;;;;5116816;28;20451;-74
2022/08/04 10:43:25;;;;;;;1.00;0.60;;;36.40;1.00;;;;;;5114833;28;20499;-77
2022/08/04 10:45:59;;;;;;;0.67;0.50;;;36.50;1.00;;;;;;5115927;28;20433;-75
2022/08/04 10:48:41;;;;;;;0.83;0.50;;;36.70;1.00;;;;;;5078051;28;20500;-76
2022/08/04 10:51:28;;;;;;;0.70;0.50;;;36.40;1.00;;;;;;5115372;28;20446;-74
2022/08/04 10:54:06;;;;;;;0.70;0.60;;;36.40;1.00;;;;;;5115396;28;20504;-76
2022/08/04 10:56:40;;;;;;;0.70;0.67;;;36.60;1.00;;;;;;5115499;28;20807;-75
2022/08/04 10:59:13;;;;;;;0.63;0.57;;;36.80;1.00;;;;;;5116512;28;20490;-77
2022/08/04 11:01:47;;;;;;;1.10;0.60;;;37.00;1.00;;;;;;5117145;28;20441;-74
2022/08/04 11:04:29;;;;;;;0.70;0.50;;;37.10;1.00;;;;;;5113434;28;20453;-75
2022/08/04 11:07:00;;;;;;;1.23;0.63;;;37.20;1.00;;;;;;5114215;28;20444;-77
2022/08/04 11:09:31;;;;;;;0.70;0.50;;;37.30;1.00;;;;;;5115817;28;20705;-75
2022/08/04 11:12:04;;;;;;;0.60;0.50;;;37.70;1.00;;;;;;5116150;28;20499;-75
2022/08/04 11:14:36;;;;;;;0.60;0.53;;;37.90;1.00;;;;;;5116366;28;20751;-75
2022/08/04 11:17:07;;;;;;;0.60;0.50;;;37.60;1.00;;;;;;5115067;28;20896;-74
2022/08/04 11:19:42;;;;;;;0.70;0.40;;;37.30;99.90;;;;;;5115507;28;20941;-75
2022/08/04 11:22:14;;;;;;;0.60;0.50;;;37.10;99.90;;;;;;5115390;28;20464;-75
2022/08/04 11:24:50;;;;;;;0.70;0.50;;;37.50;99.90;;;;;;5116880;28;20498;-76
2022/08/04 11:27:25;;;;;;;0.90;0.50;;;37.70;99.90;;;;;;5115337;28;20514;-76
2022/08/04 11:30:04;;;;;;;0.80;0.57;;;37.80;99.90;;;;;;5115788;28;20480;-75
2022/08/04 11:32:37;;;;;;;0.70;0.60;;;37.60;99.90;;;;;;5114206;28;20457;-74
2022/08/04 11:35:11;;;;;;;0.53;0.50;;;37.70;99.90;;;;;;5113323;28;20930;-75
2022/08/04 11:37:46;;;;;;;0.60;0.50;;;37.90;99.90;;;;;;5114701;28;20452;-75
2022/08/04 11:40:22;;;;;;;0.70;0.60;;;38.00;99.90;;;;;;5113547;28;20444;-75
2022/08/04 11:42:56;;;;;;;0.50;0.40;;;38.00;99.90;;;;;;5112286;28;20601;-76
2022/08/04 11:45:30;;;;;;;0.60;0.50;;;38.60;99.90;;;;;;5094088;28;20451;-75
2022/08/04 11:48:01;;;;;;;1.50;0.57;;;38.60;99.90;;;;;;5111666;28;20721;-75
2022/08/04 11:50:32;;;;;;;0.60;0.50;;;38.30;99.90;;;;;;5113469;28;20445;-76
2022/08/04 11:53:01;;;;;;;0.60;0.60;;;38.00;99.90;;;;;;5111737;28;20448;-76
2022/08/04 11:55:31;;;;;;;0.67;0.50;;;37.80;99.90;;;;;;5113217;28;20452;-74
2022/08/04 11:57:58;;;;;;;0.70;0.60;;;37.10;99.90;;;;;;5113066;28;20449;-75
2022/08/04 12:00:27;;;;;;;0.70;0.60;;;36.50;99.90;;;;;;5112204;28;20437;-74
2022/08/04 12:03:23;;;;;;;0.70;0.50;;;36.20;99.90;;;;;;5113728;28;20477;-74
2022/08/04 12:06:00;;;;;;;1.00;0.87;;;36.00;99.90;;;;;;5111686;28;20569;-75
2022/08/04 12:08:41;;;;;;;0.60;0.50;;;36.50;99.90;;;;;;5115293;28;20492;-75
2022/08/04 12:11:21;;;;;;;0.80;0.50;;;37.00;99.90;;;;;;5115509;28;20459;-75
2022/08/04 12:13:57;;;;;;;1.10;0.70;;;37.70;99.90;;;;;;5115882;28;20925;-75
2022/08/04 12:16:30;;;;;;;2.03;0.60;;;38.00;99.90;;;;;;5115558;28;20531;-75
2022/08/04 12:18:59;;;;;;;0.50;0.50;;;37.50;99.90;;;;;;5116437;28;20453;-75
2022/08/04 12:21:33;;;;;;;0.80;0.60;;;37.80;99.90;;;;;;5115936;28;20816;-75
2022/08/04 12:24:05;;;;;;;2.20;0.60;;;38.00;99.90;;;;;;5116198;28;20545;-75
2022/08/04 12:26:37;;;;;;;1.10;0.60;;;38.30;99.90;;;;;;5114942;28;20480;-75
2022/08/04 12:29:07;;;;;;;0.73;0.60;;;38.50;99.90;;;;;;5115247;28;20556;-74
2022/08/04 12:31:40;;;;;;;0.60;0.50;;;38.60;99.90;;;;;;5114927;28;20445;-75
2022/08/04 12:34:12;;;;;;;1.13;0.60;;;38.80;99.90;;;;;;5115531;28;20879;-74
2022/08/04 12:36:46;;;;;;;2.10;0.60;;;39.10;99.90;;;;;;5115561;28;20495;-74
2022/08/04 12:39:18;;;;;;;0.60;0.50;;;38.80;99.90;;;;;;5113761;28;20539;-74
2022/08/04 12:41:57;;;;;;;0.80;0.60;;;38.90;99.90;;;;;;5115516;28;20433;-75
2022/08/04 12:44:25;;;;;;;0.70;0.50;;;39.20;99.90;;;;;;5115046;28;20455;-75
2022/08/04 12:46:52;;;;;;;0.80;0.67;;;39.50;99.90;;;;;;5118448;28;20912;-78
2022/08/04 12:49:24;;;;;;;0.60;0.50;;;39.70;99.90;;;;;;5117494;28;20559;-79
2022/08/04 12:51:52;;;;;;;0.77;0.60;;;39.80;99.90;;;;;;5114906;28;20527;-78
2022/08/04 12:54:25;;;;;;;3.50;0.70;;;40.10;99.90;;;;;;5118923;28;20487;-78
2022/08/04 12:56:58;;;;;;;0.87;0.60;;;39.80;99.90;;;;;;5117689;28;20759;-74
2022/08/04 12:59:25;;;;;;;0.93;0.67;;;39.90;99.90;;;;;;5119003;28;20456;-74
2022/08/04 13:01:54;;;;;;;0.50;0.50;;;40.30;99.90;;;;;;5117084;28;20964;-74
2022/08/04 13:04:24;;;;;;;0.60;0.60;;;40.00;99.90;;;;;;5118368;28;20498;-74
2022/08/04 13:06:56;;;;;;;1.47;0.70;;;40.10;99.90;;;;;;5115867;28;20481;-74
2022/08/04 13:09:28;;;;;;;2.60;0.60;;;40.20;99.90;;;;;;5114719;28;20452;-75
2022/08/04 13:12:00;;;;;;;0.70;0.70;;;39.40;99.90;;;;;;5124049;27;20887;-77
2022/08/04 13:14:31;;;;;;;0.73;0.60;;;39.20;99.90;;;;;;5139244;27;20448;-75
2022/08/04 13:17:00;;;;;;;2.23;0.70;;;39.30;99.90;;;;;;5142433;27;20461;-76
2022/08/04 13:19:28;;;;;;;0.70;0.60;;;39.50;99.90;;;;;;5140677;27;20528;-76
2022/08/04 13:21:56;;;;;;;0.77;0.60;;;39.70;99.90;;;;;;5143627;27;20738;-76
2022/08/04 13:24:24;;;;;;;0.60;0.50;;;39.90;99.90;;;;;;5157461;27;20970;-76
2022/08/04 13:26:58;;;;;;;0.70;0.57;;;39.80;99.90;;;;;;5162717;27;20482;-76
2022/08/04 13:29:31;;;;;;;0.60;0.60;;;39.70;99.90;;;;;;5141282;27;20514;-76
2022/08/04 13:31:59;;;;;;;0.70;0.50;;;39.90;99.90;;;;;;5139682;27;20633;-75
2022/08/04 13:34:30;;;;;;;0.70;0.70;;;39.50;99.90;;;;;;5151072;27;20538;-76
2022/08/04 13:36:58;;;;;;;0.73;0.60;;;39.70;99.90;;;;;;5147882;27;20460;-77
2022/08/04 13:39:27;;;;;;;0.80;0.60;;;39.40;99.90;;;;;;5144574;27;20456;-76
2022/08/04 13:41:57;;;;;;;0.80;0.60;;;38.80;99.90;;;;;;5141517;27;20444;-76
2022/08/04 13:44:30;;;;;;;0.60;0.50;;;38.60;99.90;;;;;;5147447;27;20456;-76